x

Boston 16 Nm East Of Boston, Ma (44013) Wave Buoy

10:50 - Sat 24th Sep 2016 All times are EDT. -4 hours from GMT.

  • Sig Wave height 2.6ft
  • Swell Direction
  • Peak Period 11s
  • Average Period 4s
  • Wind
    20mph, 22mph gusts
  • Sea Temp 64°f
  • Aire Temp 61°f
  • Sea Pressure 1018.1mb
  • Boston 16 Nm East Of Boston, Ma
  • Boston 16 Nm East Of Boston, Ma

More Historic Weather Station data

Upgrade to MSW Pro to gain access to the past 30 days of data for over 8000 Wavebouys and Weather Stations around the globe.

Join Pro

Comparision Forecast

View Surf forecast
   
sáb 09/24 10:50 2.5ft 11s 4s 20 22 mph 1018.1mb 64f 61f
9:50 2.5ft 10s 4s 20 22 mph 1018.1mb 64f 62f
8:50 2.5ft 10s 4s 18 22 mph 1018mb 65f 62f
7:50 2.5ft 5s 4s 18 20 mph 1017.8mb 65f 63f
6:50 2.5ft 5s 5s 4 9 mph 1017.6mb 65f 62f
5:50 2.5ft 10s 5s 4 7 mph 1017.1mb 65f 61f
4:50 3ft 5s 5s 4
mph
1017mb 65f 60f
3:50 3ft 5s 5s 4 7 mph 1017.5mb 65f 60f
2:50 3ft 6s 5s 4 7 mph 1017.8mb 65f 60f
1:50 3.5ft 5s 5s 9 13 mph 1018.3mb 65f 59f
12:50 3.5ft 6s 5s 13 18 mph 1019.1mb 65f 59f
11:50 3.5ft 7s 5s 13 20 mph 1019.3mb 64f 59f
10:50 3.5ft 7s 5s 16 18 mph 1019.3mb 64f 59f
9:50 3.5ft 6s 5s 16 20 mph 1018.9mb 64f 59f
8:50 3.5ft 6s 5s 13 20 mph 1018.7mb 64f 59f
7:50 3.5ft 6s 5s 13 18 mph 1018.6mb 65f 59f
6:50 3.5ft 6s 5s 13 16 mph 1018.5mb 65f 60f
5:50 3.5ft 5s 5s 13 18 mph 1018.3mb 65f 60f
3:50 4.5ft 6s 5s 18 22 mph 1017.4mb 65f 60f
2:50 4.5ft 6s 5s 18 25 mph 1018mb 66f 61f
1:50 5ft 6s 5s 18 22 mph 1018.2mb 66f 61f
12:50 5ft 6s 5s 16 20 mph 1018.3mb 65f 60f
vie 09/23 11:50 6ft 6s 5s 16 20 mph 1018.1mb 65f 58f
10:50 5.5ft 6s 5s 22 27 mph 1017.8mb 65f 59f
9:50 5ft 6s 5s 27 34 mph 1017.2mb 65f 61f
8:50 4.5ft 5s 4s 25 29 mph 1016.6mb 66f 63f
7:50 3.5ft 4s 4s 27 31 mph 1015.6mb 66f 63f
6:50 2.5ft 3s 3s 25 31 mph 1014.8mb 66f 64f
5:50 1.3ft 10s 5s 20 25 mph 1014mb 67f 68f
4:50 1.3ft 11s 6s 9
mph
1013.6mb 67f 69f
3:50 1.3ft 11s 6s 2
mph
1013.3mb 68f 70f
2:50 1.3ft 11s 7s 2 4 mph 1013.6mb 67f 69f
1:50 1.3ft 11s 7s 2
mph
1014.2mb 67f 68f
12:50 1.3ft 10s 7s 2 4 mph 1014.3mb 67f 67f
11:50 1.3ft 11s 7s 7
mph
1014.8mb 67f 67f
10:50 1.3ft 11s 5s 4 7 mph 1015.6mb 67f 68f
9:50 1.3ft 11s 5s 9 11 mph 1015.9mb 66f 66f
8:50 1.3ft 9s 6s 11 13 mph 1016.2mb 66f 65f
7:50 1.3ft 11s 5s 9 11 mph 1016.3mb 66f 65f
6:50 1ft 9s 5s 9 11 mph 1016.4mb 66f 65f
5:50 1ft 10s 6s 11
mph
1016.3mb 66f 65f
4:50 1ft 10s 6s 9 11 mph 1016mb 67f 65f
3:50 1ft 11s 6s 9
mph
1016.5mb 67f 65f
2:50 1ft 11s 5s 9 11 mph 1016.6mb 67f 66f
1:50 1.3ft 10s 5s 9 11 mph 1017.5mb 67f 67f
12:50 1.3ft 10s 5s 9 11 mph 1018.1mb 67f 67f
jue 09/22 11:50 1.3ft 10s 4s 11 13 mph 1018.3mb 67f 68f
10:50 1.3ft 10s 5s 13
mph
1018.6mb 67f 68f
9:50 1ft 10s 6s 13
mph
1018.7mb 68f 68f
8:50 1ft 10s 7s 13
mph
1018.6mb 68f 69f
7:50 1ft 10s 7s 11 13 mph 1018.8mb 68f 68f
6:50 1ft 10s 7s 9 11 mph 1018.6mb 69f 68f
5:50 1ft 10s 6s 9 11 mph 1018.8mb 69f 69f
4:50 1ft 10s 6s 9
mph
1019.1mb 70f 69f
3:50 1ft 11s 6s 7 9 mph 1019.1mb 70f 69f
2:50 1ft 10s 6s 4
mph
1019.8mb 71f 69f
1:50 1.3ft 10s 6s 2
mph
1020.9mb 70f 69f
12:50 1.3ft 9s 6s 4
mph
1021.3mb 69f 68f
11:50 1ft 11s 6s 4
mph
1021.8mb 68f 68f
10:50 1ft 11s 7s 4 7 mph 1022.4mb 67f 68f
9:50 1ft 10s  -  4
mph
1022.4mb 67f 66f
8:50 1ft 11s 7s 7 9 mph 1021.9mb 66f 66f
7:50 1ft 10s 7s 7 9 mph 1021.7mb 66f 66f
6:50 1ft 11s 7s 4 7 mph 1021.3mb 66f 66f
5:50 1ft 11s 8s 4 7 mph 1020.8mb 66f 66f
4:50 1ft 11s 6s 4 7 mph 1020.5mb 66f 66f
3:50 1ft 11s 7s 7 9 mph 1020.4mb 67f 66f
2:50 1ft 11s 7s 4 7 mph 1020.3mb 67f 66f
1:50 1ft 11s 7s 7
mph
1020.5mb 67f 67f
12:50 1ft 11s 7s 7
mph
1020.9mb 67f 67f
mié 09/21 11:50 1ft 11s 7s 7
mph
1021mb 67f 69f
10:50 1ft 7s 7s 7 9 mph 1021.1mb 67f 69f
9:50 1ft 11s 7s 7 9 mph 1020.9mb 68f 69f
8:50 1ft 11s 6s 7
mph
1021mb 68f 69f
7:50 1ft 11s 6s 4
mph
1020.9mb 68f 69f
6:50 1ft 10s 6s 4
mph
1020.6mb 68f 68f
5:50 1ft 11s 5s 2 4 mph 1020.4mb 69f 69f
4:50 1ft 12s 6s 2 4 mph 1020mb 69f 69f
3:50 1ft 11s 5s 2 4 mph 1019.6mb 69f 69f
2:50 1ft 8s 5s 7
mph
1019.8mb 68f 69f
1:50 1.3ft 11s 5s 4
mph
1020.4mb 70f 69f
12:50 1.3ft 7s 5s  -  2 mph 1020.9mb 68f 70f
11:50 1.3ft 7s 5s 7
mph
1021mb 67f 70f
10:50 1.3ft 7s 5s 11
mph
1020.9mb 67f 69f
9:50 1.3ft 8s 4s 9
mph
1021mb 67f 68f
8:50 1.3ft 7s 5s 11
mph
1020.4mb 67f 68f
7:50 1ft 8s 6s 13 16 mph 1020mb 67f 68f
6:50 1ft 7s 6s 7 11 mph 1019.8mb 67f 67f
5:50 1ft 8s 6s 11 13 mph 1018.9mb 67f 67f
4:50 1ft 8s 7s 9 11 mph 1018.5mb 67f 68f